Time;durP1;ratioP1;P1;durP2;ratioP2;P2;SDS_P1;SDS_P2;PMS_P1;PMS_P2;Temp;Humidity;BMP_temperature;BMP_pressure;BME280_temperature;BME280_humidity;BME280_pressure;Samples;Min_cycle;Max_cycle;Signal;HPM_P1;HPM_P2
2022/01/06 00:00:07;;;;;;;12.93;4.60;;;;;;;;;;5030565;28;20044;-65
2022/01/06 00:02:34;;;;;;;11.18;4.05;;;;;;;;;;5029892;28;20521;-66
2022/01/06 00:05:00;;;;;;;16.23;3.85;;;;;;;;;;5030550;28;20033;-68
2022/01/06 00:07:28;;;;;;;15.43;7.30;;;;;;;;;;5031320;28;20075;-68
2022/01/06 00:09:53;;;;;;;12.95;7.10;;;4.40;99.90;;;;;;5030676;28;20083;-66
2022/01/06 00:12:24;;;;;;;19.20;6.57;;;;;;;;;;5031317;28;20419;-68
2022/01/06 00:25:25;;;;;;;11.23;4.45;;;;;;;;;;5026093;28;20041;-69
2022/01/06 00:27:51;;;;;;;15.00;6.20;;;;;;;;;;5013037;28;20038;-68
2022/01/06 00:30:17;;;;;;;11.82;3.58;;;;;;;;;;5014659;28;20659;-66
2022/01/06 00:32:43;;;;;;;9.23;3.00;;;;;;;;;;5015243;28;20113;-67
2022/01/06 00:35:09;;;;;;;10.30;3.33;;;;;;;;;;5014825;28;20076;-66
2022/01/06 00:40:11;;;;;;;9.68;2.67;;;;;;;;;;5159296;22;20068;-66
2022/01/06 00:42:38;;;;;;;9.10;3.17;;;;;;;;;;5046140;28;20496;-66
2022/01/06 00:45:05;;;;;;;11.30;3.42;;;;;;;;;;5054575;28;20090;-67
2022/01/06 00:47:31;;;;;;;8.30;3.00;;;;;;;;;;5055086;28;20029;-66
2022/01/06 00:49:57;;;;;;;12.60;3.17;;;;;;;;;;5055676;28;20040;-67
2022/01/06 00:52:23;;;;;;;9.85;3.53;;;;;;;;;;5053700;28;20040;-67
2022/01/06 00:54:49;;;;;;;8.45;3.10;;;;;;;;;;5054201;28;20479;-66
2022/01/06 00:57:15;;;;;;;7.03;2.67;;;;;;;;;;5062569;22;20091;-64
2022/01/06 00:59:41;;;;;;;9.80;2.75;;;;;;;;;;5029678;28;20025;-64
2022/01/06 01:02:07;;;;;;;8.23;2.97;;;;;;;;;;5019003;28;20434;-64
2022/01/06 01:04:33;;;;;;;10.00;2.67;;;;;;;;;;5040139;28;20022;-65
2022/01/06 01:06:59;;;;;;;9.02;3.10;;;;;;;;;;5034941;28;20026;-65
2022/01/06 01:09:25;;;;;;;11.68;3.10;;;;;;;;;;5034118;28;20030;-64
2022/01/06 01:11:51;;;;;;;7.60;2.85;;;;;;;;;;5034826;28;20045;-64
2022/01/06 01:14:19;;;;;;;12.25;2.53;;;;;;;;;;5005464;28;20129;-63
2022/01/06 01:16:53;;;;;;;7.22;2.78;;;;;;;;;;5014971;28;20025;-65
2022/01/06 01:19:20;;;;;;;10.70;2.80;;;;;;;;;;5014217;28;20045;-64
2022/01/06 01:21:46;;;;;;;5.65;2.70;;;;;;;;;;5014616;28;20018;-64
2022/01/06 01:24:12;;;;;;;10.68;3.88;;;;;;;;;;5014144;28;20037;-65
2022/01/06 01:26:38;;;;;;;7.95;2.95;;;;;;;;;;5014031;28;20498;-65
2022/01/06 01:29:09;;;;;;;5.32;2.53;;;;;;;;;;5013821;28;20026;-65
2022/01/06 01:31:42;;;;;;;5.03;2.42;;;;;;;;;;5006926;28;20320;-65
2022/01/06 01:34:09;;;;;;;5.95;2.58;;;;;;;;;;5038862;28;20097;-65
2022/01/06 01:36:36;;;;;;;9.40;3.42;;;;;;;;;;5038528;28;20026;-63
2022/01/06 01:39:02;;;;;;;10.93;2.60;;;;;;;;;;5036659;28;20059;-64
2022/01/06 01:41:28;;;;;;;9.38;2.85;;;;;;;;;;5023154;28;20080;-64
2022/01/06 01:43:55;;;;;;;6.95;2.50;;;;;;;;;;5014290;28;20113;-64
2022/01/06 01:46:28;;;;;;;10.77;3.13;;;;;;;;;;5014159;28;20385;-64
2022/01/06 01:51:39;;;;;;;10.57;3.25;;;;;;;;;;5014158;28;20068;-63
2022/01/06 01:54:05;;;;;;;7.25;2.70;;;;;;;;;;5014165;28;20030;-64
2022/01/06 01:56:31;;;;;;;11.52;2.55;;;;;;;;;;5012317;28;20042;-64
2022/01/06 01:58:58;;;;;;;6.28;3.33;;;;;;;;;;5013401;28;20030;-63
2022/01/06 02:01:24;;;;;;;5.90;2.70;;;;;;;;;;5025400;28;20025;-64
2022/01/06 02:03:50;;;;;;;7.22;2.58;;;;;;;;;;5025394;28;20040;-65
2022/01/06 02:06:16;;;;;;;7.82;2.40;;;;;;;;;;5032890;28;20059;-65
2022/01/06 02:08:42;;;;;;;8.57;2.67;;;;;;;;;;5031749;28;20396;-65
2022/01/06 02:11:08;;;;;;;8.27;2.88;;;;;;;;;;5033454;28;20025;-64
2022/01/06 02:13:34;;;;;;;6.57;2.50;;;;;;;;;;5033489;28;20033;-65
2022/01/06 02:16:02;;;;;;;5.97;2.90;;;;;;;;;;5032977;28;20037;-64
2022/01/06 02:18:28;;;;;;;11.10;2.70;;;;;;;;;;5032863;28;20017;-64
2022/01/06 02:20:55;;;;;;;7.95;2.58;;;;;;;;;;5033645;28;20035;-63
2022/01/06 02:23:21;;;;;;;12.00;2.90;;;;;;;;;;5033457;28;20105;-63
2022/01/06 02:25:48;;;;;;;6.95;2.92;;;;;;;;;;5033482;28;20025;-63
2022/01/06 02:28:16;;;;;;;7.88;2.60;;;;;;;;;;5033149;28;20060;-63
2022/01/06 02:30:44;;;;;;;11.85;2.83;;;;;;;;;;5033185;28;20033;-63
2022/01/06 02:33:10;;;;;;;5.28;2.50;;;;;;;;;;5031944;28;20076;-63
2022/01/06 02:35:36;;;;;;;5.63;2.55;;;;;;;;;;5015576;28;20091;-62
2022/01/06 02:38:02;;;;;;;15.00;2.90;;;;;;;;;;5032915;28;20427;-63
2022/01/06 02:40:28;;;;;;;6.20;2.85;;;;;;;;;;5032945;28;20419;-64
2022/01/06 02:42:55;;;;;;;7.72;3.00;;;;;;;;;;5032668;28;20036;-63
2022/01/06 02:45:23;;;;;;;4.38;2.80;;;;;;;;;;5033014;28;20487;-63
2022/01/06 02:47:49;;;;;;;6.65;2.65;;;;;;;;;;5040046;28;20036;-63
2022/01/06 02:50:16;;;;;;;14.95;3.05;;;;;;;;;;5039818;28;20037;-63
2022/01/06 02:52:43;;;;;;;5.63;2.90;;;;;;;;;;5040214;28;20096;-64
2022/01/06 02:55:10;;;;;;;8.57;2.67;;;;;;;;;;5032992;28;20100;-64
2022/01/06 02:57:37;;;;;;;7.25;2.50;;;;;;;;;;5033430;28;20092;-64
2022/01/06 03:00:04;;;;;;;4.75;2.85;;;;;;;;;;5033394;28;20037;-64
2022/01/06 03:02:30;;;;;;;10.57;2.85;;;;;;;;;;5033840;28;20045;-64
2022/01/06 03:04:56;;;;;;;10.60;2.40;;;;;;;;;;5033688;28;20029;-63
2022/01/06 03:07:22;;;;;;;8.55;2.85;;;;;;;;;;5032847;28;20036;-63
2022/01/06 03:09:54;;;;;;;8.45;2.75;;;;;;;;;;5032123;28;20040;-63
2022/01/06 03:12:25;;;;;;;9.50;2.85;;;;;;;;;;5032239;28;20029;-62
2022/01/06 03:14:51;;;;;;;7.03;2.40;;;;;;;;;;5032143;28;20037;-64
2022/01/06 03:17:17;;;;;;;6.20;2.50;;;;;;;;;;5031758;28;20264;-63
2022/01/06 03:19:43;;;;;;;3.85;2.80;;;;;;;;;;5012570;28;20030;-64
2022/01/06 03:22:10;;;;;;;4.22;2.47;;;;;;;;;;5032043;28;20538;-64
2022/01/06 03:24:36;;;;;;;8.23;2.97;;;;;;;;;;5032041;28;20637;-65
2022/01/06 03:27:02;;;;;;;9.48;3.63;;;;;;;;;;5031996;28;20056;-64
2022/01/06 03:32:04;;;;;;;9.80;2.65;;;;;;;;;;5109726;27;20392;-63
2022/01/06 03:34:30;;;;;;;6.32;2.70;;;;;;;;;;5109324;28;20059;-65
2022/01/06 03:36:57;;;;;;;5.30;2.70;;;;;;;;;;5109413;28;20032;-65
2022/01/06 03:39:23;;;;;;;5.90;2.83;;;;;;;;;;5109177;28;20444;-64
2022/01/06 03:41:49;;;;;;;5.25;2.20;;;;;;;;;;5109433;28;20046;-62
2022/01/06 03:44:16;;;;;;;4.65;2.35;;;;;;;;;;5109303;28;20024;-65
2022/01/06 03:46:42;;;;;;;5.55;2.25;;;;;;;;;;5109459;28;20052;-65
2022/01/06 03:49:08;;;;;;;8.10;2.47;;;;;;;;;;5108371;28;20028;-64
2022/01/06 03:51:34;;;;;;;3.90;1.98;;;;;;;;;;5109473;28;20036;-64
2022/01/06 03:54:00;;;;;;;5.95;2.38;;;;;;;;;;5109326;28;20047;-65
2022/01/06 03:56:26;;;;;;;2.72;2.22;;;;;;;;;;5109154;28;20032;-64
2022/01/06 03:58:52;;;;;;;2.75;2.10;;;;;;;;;;5107705;28;20525;-65
2022/01/06 04:01:18;;;;;;;3.10;2.22;;;;;;;;;;5108037;28;20501;-65
2022/01/06 04:03:47;;;;;;;3.55;2.08;;;;;;;;;;5091242;28;20422;-64
2022/01/06 04:06:13;;;;;;;5.35;2.33;;;;;;;;;;5088891;28;20020;-64
2022/01/06 04:08:39;;;;;;;6.10;2.25;;;;;;;;;;5088103;28;20027;-64
2022/01/06 04:11:05;;;;;;;4.60;2.05;;;;;;;;;;5088748;28;20024;-65
2022/01/06 04:13:32;;;;;;;2.00;1.83;;;;;;;;;;5088413;28;20025;-65
2022/01/06 04:16:01;;;;;;;3.90;2.22;;;;;;;;;;5088483;28;20032;-65
2022/01/06 04:18:27;;;;;;;3.95;1.90;;;;;;;;;;5087418;28;20024;-65
2022/01/06 04:20:53;;;;;;;3.53;1.88;;;;;;;;;;5088412;28;20031;-65
2022/01/06 04:23:19;;;;;;;4.85;1.90;;;;;;;;;;5088280;28;20440;-65
2022/01/06 04:25:45;;;;;;;2.08;1.70;;;;;;;;;;5087777;28;20024;-64
2022/01/06 04:28:11;;;;;;;4.30;1.80;;;;;;;;;;5087820;28;20033;-64
2022/01/06 04:30:37;;;;;;;3.85;2.10;;;;;;;;;;5087577;28;20089;-65
2022/01/06 04:33:03;;;;;;;3.40;2.15;;;;;;;;;;5087954;28;20052;-65
2022/01/06 04:35:29;;;;;;;3.45;1.77;;;;;;;;;;5088056;28;20048;-65
2022/01/06 04:37:55;;;;;;;4.25;1.70;;;;;;;;;;5088012;28;20020;-64
2022/01/06 04:40:21;;;;;;;3.55;1.95;;;;;;;;;;5087319;28;20373;-65
2022/01/06 04:42:47;;;;;;;4.05;2.20;;;;;;;;;;5078038;28;20021;-65
2022/01/06 04:45:13;;;;;;;2.47;1.90;;;;;;;;;;5074340;28;20558;-64
2022/01/06 04:47:39;;;;;;;2.30;2.10;;;;;;;;;;5074244;28;20401;-64
2022/01/06 04:50:05;;;;;;;4.85;2.63;;;;;;;;;;5073360;28;20029;-64
2022/01/06 04:52:31;;;;;;;2.22;2.05;;;;;;;;;;5075096;28;20017;-65
2022/01/06 04:54:57;;;;;;;3.53;2.10;;;;;;;;;;5074009;28;20028;-65
2022/01/06 04:57:24;;;;;;;2.92;2.45;;;;;;;;;;5074191;28;20027;-64
2022/01/06 04:59:49;;;;;;;7.05;3.33;;;;;;;;;;5073430;28;20025;-65
2022/01/06 05:02:16;;;;;;;3.15;2.10;;;;;;;;;;5073809;28;20082;-64
2022/01/06 05:04:42;;;;;;;3.40;2.55;;;;;;;;;;5073765;28;20115;-65
2022/01/06 05:07:08;;;;;;;3.83;2.30;;;;;;;;;;5074041;28;20112;-65
2022/01/06 05:09:33;;;;;;;2.90;2.10;;;3.10;99.90;;;;;;5074369;28;20027;-64
2022/01/06 05:11:59;;;;;;;2.40;2.20;;;;;;;;;;5074786;28;20088;-63
2022/01/06 05:14:25;;;;;;;2.72;2.20;;;;;;;;;;5074717;28;20437;-64
2022/01/06 05:16:51;;;;;;;3.38;1.98;;;;;;;;;;5074674;28;20021;-63
2022/01/06 05:19:18;;;;;;;2.30;2.10;;;;;;;;;;5078601;28;20028;-64
2022/01/06 05:21:44;;;;;;;3.95;2.15;;;;;;;;;;5075795;28;20063;-64
2022/01/06 05:24:13;;;;;;;2.22;1.90;;;;;;;;;;5083133;28;20028;-64
2022/01/06 05:26:40;;;;;;;4.30;2.05;;;;;;;;;;5081490;28;20028;-64
2022/01/06 05:29:11;;;;;;;4.47;2.50;;;;;;;;;;5093454;28;20416;-65
2022/01/06 05:31:37;;;;;;;2.03;1.90;;;;;;;;;;5093080;28;20028;-64
2022/01/06 05:34:03;;;;;;;2.28;2.08;;;;;;;;;;5093503;28;20024;-64
2022/01/06 05:36:29;;;;;;;3.80;2.50;;;;;;;;;;5094802;28;20020;-65
2022/01/06 05:38:55;;;;;;;2.70;2.10;;;;;;;;;;5092942;28;20028;-65
2022/01/06 05:41:22;;;;;;;3.20;2.13;;;;;;;;;;5081915;28;20031;-66
2022/01/06 05:43:48;;;;;;;3.65;2.15;;;;;;;;;;5091507;28;20055;-69
2022/01/06 05:46:14;;;;;;;2.22;2.13;;;;;;;;;;5082970;28;20029;-68
2022/01/06 05:48:40;;;;;;;2.78;2.22;;;;;;;;;;5082953;28;20042;-69
2022/01/06 05:51:06;;;;;;;2.30;2.10;;;;;;;;;;5080250;28;20024;-68
2022/01/06 05:53:32;;;;;;;2.38;2.22;;;;;;;;;;5083451;28;20035;-67
2022/01/06 05:55:58;;;;;;;2.38;2.15;;;;;;;;;;5093403;28;20028;-68
2022/01/06 05:58:24;;;;;;;3.13;2.00;;;;;;;;;;5084084;28;20020;-69
2022/01/06 06:00:50;;;;;;;3.20;2.22;;;;;;;;;;5073960;28;20036;-68
2022/01/06 06:03:17;;;;;;;3.65;2.25;;;;;;;;;;5071317;28;20037;-68
2022/01/06 06:05:42;;;;;;;3.00;2.00;;;2.90;99.90;;;;;;5072406;28;20025;-68
2022/01/06 06:08:09;;;;;;;2.38;2.17;;;;;;;;;;5072765;28;20085;-69
2022/01/06 06:10:35;;;;;;;3.50;2.72;;;2.60;99.90;;;;;;5072610;28;20035;-69
2022/01/06 06:13:01;;;;;;;2.47;2.30;;;2.40;99.90;;;;;;5078185;28;20032;-68
2022/01/06 06:15:28;;;;;;;2.20;2.10;;;2.60;99.90;;;;;;5093079;28;20032;-67
2022/01/06 06:17:53;;;;;;;2.22;2.03;;;3.00;99.90;;;;;;5092860;28;20143;-69
2022/01/06 06:20:19;;;;;;;4.00;2.10;;;3.80;99.90;;;;;;5090627;28;20130;-69
2022/01/06 06:22:45;;;;;;;2.33;2.13;;;3.30;99.90;;;;;;5092515;28;20466;-69
2022/01/06 06:25:11;;;;;;;2.10;2.00;;;2.90;99.90;;;;;;5093080;28;20081;-69
2022/01/06 06:27:36;;;;;;;2.38;2.00;;;2.60;99.90;;;;;;5092638;28;20089;-72
2022/01/06 06:30:03;;;;;;;6.03;2.40;;;;;;;;;;5092025;28;20478;-68
2022/01/06 06:32:33;;;;;;;3.30;2.10;;;1.50;99.90;;;;;;5093305;28;20114;-77
2022/01/06 06:34:59;;;;;;;3.65;2.53;;;2.90;99.90;;;;;;5074067;28;20053;-76
2022/01/06 06:37:25;;;;;;;2.47;2.28;;;4.10;99.90;;;;;;5091216;28;20466;-76
2022/01/06 06:39:50;;;;;;;2.03;1.92;;;2.80;99.90;;;;;;5089618;28;20036;-76
2022/01/06 06:42:16;;;;;;;2.80;1.90;;;2.80;99.90;;;;;;5090237;28;20370;-76
2022/01/06 06:44:42;;;;;;;2.17;2.08;;;2.60;99.90;;;;;;5089793;28;20478;-75
2022/01/06 06:47:07;;;;;;;2.35;2.15;;;3.70;99.90;;;;;;5090834;28;20046;-75
2022/01/06 06:49:33;;;;;;;4.55;2.08;;;2.50;99.90;;;;;;5088810;28;20077;-76
2022/01/06 06:51:58;;;;;;;2.45;2.25;;;3.00;99.90;;;;;;5089702;28;20377;-76
2022/01/06 06:54:25;;;;;;;2.20;2.03;;;2.70;99.90;;;;;;5072847;28;20070;-72
2022/01/06 06:56:51;;;;;;;2.60;2.10;;;2.90;99.90;;;;;;5091074;28;20028;-75
2022/01/06 06:59:16;;;;;;;2.63;1.98;;;3.40;99.90;;;;;;5089010;28;20032;-75
2022/01/06 07:01:42;;;;;;;2.42;2.22;;;4.50;99.90;;;;;;5071186;28;20036;-75
2022/01/06 07:04:07;;;;;;;2.60;2.10;;;4.00;99.90;;;;;;5089280;28;20032;-77
2022/01/06 07:06:33;;;;;;;2.92;2.47;;;3.20;99.90;;;;;;5089420;28;20493;-76
2022/01/06 07:09:00;;;;;;;2.67;2.47;;;;;;;;;;5088928;28;20130;-76
2022/01/06 07:11:25;;;;;;;2.60;2.20;;;4.20;99.90;;;;;;5125700;22;20104;-76
2022/01/06 07:13:51;;;;;;;2.85;2.08;;;3.20;99.90;;;;;;5078984;28;20521;-76
2022/01/06 07:16:17;;;;;;;4.03;2.38;;;3.20;99.90;;;;;;5060867;28;20504;-76
2022/01/06 07:18:42;;;;;;;3.50;2.38;;;3.30;99.90;;;;;;5062309;28;20029;-76
2022/01/06 07:21:08;;;;;;;2.05;1.95;;;;;;;;;;5059632;28;20045;-75
2022/01/06 07:23:34;;;;;;;2.70;2.08;;;3.50;99.90;;;;;;5060379;28;20070;-76
2022/01/06 07:25:59;;;;;;;2.40;2.20;;;3.30;99.90;;;;;;5059457;28;20024;-77
2022/01/06 07:28:25;;;;;;;3.22;2.10;;;3.90;99.90;;;;;;5059846;28;20032;-78
2022/01/06 07:30:51;;;;;;;2.47;2.17;;;4.00;99.90;;;;;;5059806;28;20071;-77
2022/01/06 07:33:17;;;;;;;1.75;1.65;;;2.70;99.90;;;;;;5062820;28;20021;-77
2022/01/06 07:35:43;;;;;;;2.10;1.90;;;;;;;;;;5061897;28;20033;-77
2022/01/06 07:38:08;;;;;;;3.08;2.22;;;4.20;99.90;;;;;;5062974;28;20029;-72
2022/01/06 07:40:34;;;;;;;1.88;1.77;;;3.10;99.90;;;;;;5055168;28;20037;-70
2022/01/06 07:43:00;;;;;;;2.28;2.08;;;3.60;99.90;;;;;;5051037;28;20546;-71
2022/01/06 07:45:25;;;;;;;1.85;1.67;;;2.80;99.90;;;;;;5051027;28;20112;-69
2022/01/06 07:47:59;;;;;;;2.92;1.88;;;3.30;99.90;;;;;;5055981;28;20114;-69
2022/01/06 07:50:30;;;;;;;2.38;2.05;;;;;;;;;;5056173;28;20029;-68
2022/01/06 07:52:56;;;;;;;2.88;2.60;;;3.30;99.90;;;;;;5051029;28;20100;-68
2022/01/06 07:55:22;;;;;;;2.90;2.13;;;3.00;99.90;;;;;;5051187;28;20025;-68
2022/01/06 07:57:49;;;;;;;3.88;2.90;;;;;;;;;;5051019;28;20498;-69
2022/01/06 08:00:15;;;;;;;2.88;2.67;;;4.90;99.90;;;;;;5050279;28;20122;-70
2022/01/06 08:02:41;;;;;;;2.97;2.67;;;3.90;99.90;;;;;;5060415;28;20490;-72
2022/01/06 08:05:09;;;;;;;2.83;2.50;;;;;;;;;;5070043;28;20517;-71
2022/01/06 08:07:36;;;;;;;2.53;2.33;;;3.00;99.90;;;;;;5070096;28;20043;-71
2022/01/06 08:10:02;;;;;;;2.95;2.40;;;4.30;99.90;;;;;;5070552;28;20067;-70
2022/01/06 08:12:28;;;;;;;3.50;3.20;;;;;;;;;;5069593;28;20087;-71
2022/01/06 08:14:54;;;;;;;3.65;2.80;;;;;;;;;;5070596;28;20495;-72
2022/01/06 08:17:20;;;;;;;3.38;3.10;;;;;;;;;;5072318;28;20035;-71
2022/01/06 08:19:47;;;;;;;3.67;2.60;;;3.50;99.90;;;;;;5073725;28;20395;-72
2022/01/06 08:22:13;;;;;;;5.10;3.33;;;3.40;99.90;;;;;;5074504;28;20066;-72
2022/01/06 08:24:39;;;;;;;3.00;2.58;;;4.20;99.90;;;;;;5074515;28;20025;-72
2022/01/06 08:27:08;;;;;;;3.13;2.22;;;;;;;;;;5073638;28;20037;-72
2022/01/06 08:29:39;;;;;;;2.63;2.38;;;;;;;;;;5074026;28;20644;-72
2022/01/06 08:32:05;;;;;;;2.70;2.50;;;3.60;99.90;;;;;;5073118;28;20041;-71
2022/01/06 08:34:30;;;;;;;2.40;2.20;;;4.00;99.90;;;;;;5073994;28;20371;-71
2022/01/06 08:36:56;;;;;;;3.72;2.28;;;;;;;;;;5074622;28;20032;-73
2022/01/06 08:39:22;;;;;;;2.40;2.08;;;3.20;99.90;;;;;;5071622;28;20021;-72
2022/01/06 08:41:49;;;;;;;2.85;2.55;;;;;;;;;;5064157;28;20032;-72
2022/01/06 08:44:15;;;;;;;2.95;2.13;;;3.40;99.90;;;;;;5057641;28;20032;-70
2022/01/06 08:46:41;;;;;;;2.47;2.28;;;3.70;99.90;;;;;;5052698;28;20094;-70
2022/01/06 08:49:11;;;;;;;3.00;2.80;;;3.50;99.90;;;;;;5054426;28;20487;-71
2022/01/06 08:51:37;;;;;;;3.50;2.90;;;3.40;99.90;;;;;;5054284;28;20028;-71
2022/01/06 08:54:04;;;;;;;4.75;3.00;;;3.20;99.90;;;;;;5064944;28;20017;-69
2022/01/06 08:56:29;;;;;;;3.85;2.88;;;4.10;99.90;;;;;;5069797;28;20116;-69
2022/01/06 08:58:55;;;;;;;4.35;3.20;;;;;;;;;;5065001;28;20112;-69
2022/01/06 09:01:21;;;;;;;3.40;3.10;;;3.30;99.90;;;;;;5068109;28;20041;-68
2022/01/06 09:03:47;;;;;;;2.50;2.30;;;;;;;;;;5078062;28;20032;-67
2022/01/06 09:06:13;;;;;;;3.28;2.70;;;2.20;99.90;;;;;;5074968;28;20417;-67
2022/01/06 09:08:39;;;;;;;3.05;2.70;;;3.20;99.90;;;;;;5058182;28;20025;-69
2022/01/06 09:11:04;;;;;;;2.90;2.70;;;3.70;99.90;;;;;;5056145;28;20029;-70
2022/01/06 09:13:30;;;;;;;2.85;2.63;;;3.80;99.90;;;;;;5060883;28;20055;-71
2022/01/06 09:15:56;;;;;;;2.80;2.47;;;;;;;;;;5071925;28;20112;-71
2022/01/06 09:18:23;;;;;;;2.30;2.10;;;;;;;;;;5069010;28;20025;-72
2022/01/06 09:20:49;;;;;;;2.20;2.08;;;;;;;;;;5065819;28;20496;-73
2022/01/06 09:23:15;;;;;;;3.88;2.60;;;;;;;;;;5064344;28;20155;-72
2022/01/06 09:25:40;;;;;;;2.35;2.10;;;5.10;99.90;;;;;;5057332;28;20099;-72
2022/01/06 09:28:07;;;;;;;4.78;2.42;;;;;;;;;;5053438;28;20116;-72
2022/01/06 09:30:32;;;;;;;2.03;1.88;;;4.70;99.90;;;;;;5053522;28;20364;-72
2022/01/06 09:32:58;;;;;;;3.05;2.10;;;4.60;99.90;;;;;;5056902;28;20156;-71
2022/01/06 09:35:24;;;;;;;2.67;2.33;;;;;;;;;;5055273;28;20564;-73
2022/01/06 09:37:50;;;;;;;3.92;2.38;;;5.20;99.90;;;;;;5062070;28;20021;-73
2022/01/06 09:40:15;;;;;;;4.05;2.75;;;6.20;99.90;;;;;;5072237;28;20041;-70
2022/01/06 09:42:43;;;;;;;3.17;2.40;;;;;;;;;;5057512;28;20033;-73
2022/01/06 09:45:10;;;;;;;3.05;2.72;;;;;;;;;;5069405;28;20439;-73
2022/01/06 09:47:37;;;;;;;2.90;2.50;;;;;;;;;;5072315;28;20099;-72
2022/01/06 09:50:04;;;;;;;3.65;2.22;;;;;;;;;;5072268;28;20024;-70
2022/01/06 09:52:30;;;;;;;4.68;2.28;;;;;;;;;;5052636;28;20036;-75
2022/01/06 09:54:55;;;;;;;4.35;2.22;;;6.10;99.90;;;;;;5057451;28;20040;-73
2022/01/06 09:57:21;;;;;;;3.47;2.20;;;;;;;;;;5059759;28;20096;-73
2022/01/06 09:59:48;;;;;;;6.28;3.00;;;;;;;;;;5065978;28;20021;-71
2022/01/06 10:02:16;;;;;;;5.47;2.45;;;;;;;;;;5071242;28;20082;-72
2022/01/06 10:04:47;;;;;;;5.60;2.55;;;;;;;;;;5066264;28;20013;-72
2022/01/06 10:07:15;;;;;;;3.85;2.55;;;;;;;;;;5061790;28;20025;-72
2022/01/06 10:09:41;;;;;;;9.75;3.00;;;;;;;;;;5058852;28;20390;-73
2022/01/06 10:12:12;;;;;;;3.33;2.72;;;;;;;;;;5064637;28;20107;-73
2022/01/06 10:14:44;;;;;;;3.85;2.90;;;;;;;;;;5060401;28;20520;-73
2022/01/06 10:17:11;;;;;;;8.02;2.88;;;;;;;;;;5066938;28;20063;-72
2022/01/06 10:19:40;;;;;;;9.25;3.25;;;;;;;;;;5059623;28;20630;-72
2022/01/06 10:22:11;;;;;;;7.15;3.03;;;;;;;;;;5064962;28;20032;-71
2022/01/06 10:24:37;;;;;;;7.10;3.22;;;;;;;;;;5072629;28;20032;-72
2022/01/06 10:27:06;;;;;;;3.88;2.83;;;;;;;;;;5054493;28;20051;-72
2022/01/06 10:29:36;;;;;;;6.30;2.63;;;;;;;;;;5071822;28;20016;-73
2022/01/06 10:32:06;;;;;;;6.10;3.22;;;;;;;;;;5064560;28;20031;-72
2022/01/06 10:34:33;;;;;;;7.55;3.10;;;;;;;;;;5070675;28;20024;-70
2022/01/06 10:36:59;;;;;;;6.75;3.70;;;;;;;;;;5069474;28;20035;-73
2022/01/06 10:39:25;;;;;;;8.20;3.40;;;;;;;;;;5065132;28;20466;-73
2022/01/06 10:41:52;;;;;;;7.35;3.70;;;;;;;;;;5062217;28;20383;-74
2022/01/06 10:44:18;;;;;;;6.53;3.38;;;;;;;;;;5072157;28;20025;-73
2022/01/06 10:46:45;;;;;;;7.28;3.33;;;;;;;;;;5072151;28;20142;-73
2022/01/06 10:49:12;;;;;;;6.32;3.33;;;;;;;;;;5070958;28;20028;-72
2022/01/06 10:51:42;;;;;;;7.90;3.25;;;;;;;;;;5072055;28;20502;-73
2022/01/06 10:54:14;;;;;;;10.02;4.03;;;;;;;;;;5071010;28;20518;-74
2022/01/06 10:56:40;;;;;;;8.30;3.47;;;;;;;;;;5077770;28;20028;-75
2022/01/06 10:59:07;;;;;;;9.75;3.53;;;;;;;;;;5088884;28;20635;-72
2022/01/06 11:01:35;;;;;;;7.43;3.50;;;5.70;99.90;;;;;;5093791;28;20087;-71
2022/01/06 11:04:01;;;;;;;4.97;2.88;;;5.70;99.90;;;;;;5095514;28;20032;-71
2022/01/06 11:06:29;;;;;;;6.95;3.10;;;;;;;;;;5094433;28;20032;-70
2022/01/06 11:08:55;;;;;;;9.40;2.60;;;;;;;;;;5094520;28;20024;-71
2022/01/06 11:13:53;;;;;;;6.55;2.72;;;;;;;;;;5073375;28;20123;-72
2022/01/06 11:16:20;;;;;;;5.47;2.83;;;;;;;;;;5070736;28;20056;-71
2022/01/06 11:18:50;;;;;;;4.18;2.40;;;;;;;;;;5070404;28;20459;-70
2022/01/06 11:21:18;;;;;;;4.18;2.03;;;;;;;;;;5070863;28;20024;-71
2022/01/06 11:23:43;;;;;;;4.05;2.15;;;10.90;99.90;;;;;;5071214;28;20541;-72
2022/01/06 11:26:12;;;;;;;7.28;2.13;;;;;;;;;;5071770;28;20124;-73
2022/01/06 11:28:39;;;;;;;4.68;2.70;;;;;;;;;;5071023;28;20070;-72
2022/01/06 11:31:22;;;;;;;5.55;2.80;;;;;;;;;;5071791;28;20028;-75
2022/01/06 11:33:50;;;;;;;3.50;2.35;;;;;;;;;;5071471;28;20017;-71
2022/01/06 11:36:26;;;;;;;2.85;2.17;;;;;;;;;;5071902;28;20107;-71
2022/01/06 11:38:53;;;;;;;4.72;2.25;;;;;;;;;;5069863;28;20044;-72
2022/01/06 11:41:19;;;;;;;3.92;2.10;;;12.50;99.90;;;;;;5071605;28;20025;-73
2022/01/06 11:43:46;;;;;;;3.20;2.10;;;;;;;;;;5071930;28;20032;-74
2022/01/06 11:46:13;;;;;;;3.90;2.17;;;;;;;;;;5070746;28;20064;-73
2022/01/06 11:48:46;;;;;;;3.72;2.10;;;;;;;;;;5070966;28;20490;-73
2022/01/06 11:51:30;;;;;;;4.53;1.83;;;14.90;99.90;;;;;;5070317;28;20029;-72
2022/01/06 11:53:56;;;;;;;3.55;2.10;;;;;;;;;;5072242;28;20022;-72
2022/01/06 11:56:23;;;;;;;2.28;1.92;;;11.90;99.90;;;;;;5068622;28;20028;-72
2022/01/06 11:58:58;;;;;;;2.40;2.03;;;;;;;;;;5056040;28;20082;-73
2022/01/06 12:01:24;;;;;;;4.15;2.10;;;13.70;99.90;;;;;;5055265;28;20120;-74
2022/01/06 12:03:51;;;;;;;1.88;1.63;;;;;;;;;;5066233;28;20141;-74
2022/01/06 12:06:26;;;;;;;4.25;2.10;;;12.70;99.90;;;;;;5074955;28;20493;-72
2022/01/06 12:08:52;;;;;;;2.97;2.00;;;13.40;99.60;;;;;;5049234;28;20036;-69
2022/01/06 12:11:25;;;;;;;4.32;2.08;;;14.40;98.10;;;;;;5065859;28;20104;-69
2022/01/06 12:13:52;;;;;;;3.85;1.77;;;;;;;;;;5063564;28;20029;-70
2022/01/06 12:16:25;;;;;;;4.38;2.10;;;;;;;;;;5067318;28;20561;-73
2022/01/06 12:18:51;;;;;;;6.68;4.25;;;;;;;;;;5079185;28;20024;-75
2022/01/06 12:21:18;;;;;;;5.45;2.20;;;;;;;;;;5071835;28;20028;-75
2022/01/06 12:23:44;;;;;;;4.47;2.03;;;;;;;;;;5067274;28;20386;-70
2022/01/06 12:26:12;;;;;;;2.80;1.92;;;;;;;;;;5066612;28;20053;-72
2022/01/06 12:28:45;;;;;;;6.63;2.60;;;;;;;;;;5068574;28;20440;-75
2022/01/06 12:31:14;;;;;;;3.95;2.50;;;;;;;;;;5064874;28;20059;-76
2022/01/06 12:33:45;;;;;;;5.05;2.67;;;;;;;;;;5073676;28;20039;-75
2022/01/06 12:36:11;;;;;;;5.45;2.15;;;;;;;;;;5065643;28;20017;-76
2022/01/06 12:38:39;;;;;;;6.30;2.75;;;;;;;;;;5054098;28;20037;-75
2022/01/06 12:41:05;;;;;;;4.82;2.10;;;;;;;;;;5054611;28;20382;-75
2022/01/06 12:43:33;;;;;;;7.28;2.17;;;;;;;;;;5054864;28;20438;-75
2022/01/06 12:46:14;;;;;;;7.00;2.10;;;12.80;99.90;;;;;;5053142;28;20032;-75
2022/01/06 12:48:42;;;;;;;5.40;1.88;;;;;;;;;;5071740;28;20016;-75
2022/01/06 12:51:09;;;;;;;9.23;2.08;;;;;;;;;;5065253;28;20127;-77
2022/01/06 12:53:37;;;;;;;8.82;1.67;;;;;;;;;;5068679;28;20012;-77
2022/01/06 12:56:04;;;;;;;3.47;1.40;;;;;;;;;;5068476;28;20498;-75
2022/01/06 12:58:37;;;;;;;7.18;1.95;;;;;;;;;;5065918;28;20027;-75
2022/01/06 13:01:05;;;;;;;4.43;1.50;;;;;;;;;;5071403;28;20029;-75
2022/01/06 13:03:33;;;;;;;7.57;1.85;;;;;;;;;;5067573;28;20087;-75
2022/01/06 13:06:00;;;;;;;4.00;1.33;;;;;;;;;;5071834;28;20071;-76
2022/01/06 13:08:26;;;;;;;7.45;1.40;;;;;;;;;;5067580;28;20078;-77
2022/01/06 13:11:02;;;;;;;2.38;1.40;;;;;;;;;;5072706;28;20025;-65
2022/01/06 13:13:28;;;;;;;8.50;1.80;;;9.70;99.90;;;;;;5069672;28;20036;-62
2022/01/06 13:15:53;;;;;;;11.40;2.25;;;7.70;99.90;;;;;;5072088;28;20029;-64
2022/01/06 13:18:26;;;;;;;8.27;1.60;;;;;;;;;;5073084;28;20036;-63
2022/01/06 13:20:57;;;;;;;3.67;1.40;;;;;;;;;;5086608;22;20016;-65
2022/01/06 13:26:07;;;;;;;5.80;2.08;;;;;;;;;;5053305;28;20090;-65
2022/01/06 13:28:34;;;;;;;3.70;2.00;;;;;;;;;;5051598;28;20025;-64
2022/01/06 13:31:00;;;;;;;9.23;2.30;;;;;;;;;;5053489;28;20119;-63
2022/01/06 13:33:31;;;;;;;8.75;2.35;;;;;;;;;;5052665;28;20542;-64
2022/01/06 13:36:01;;;;;;;10.50;2.05;;;;;;;;;;5053221;28;20449;-63
2022/01/06 13:38:28;;;;;;;11.82;2.05;;;;;;;;;;5052641;28;20471;-63
2022/01/06 13:40:59;;;;;;;7.90;1.92;;;;;;;;;;5042904;28;20087;-63
2022/01/06 13:43:26;;;;;;;6.32;1.92;;;;;;;;;;5033385;28;20059;-62
2022/01/06 13:45:52;;;;;;;6.47;1.70;;;;;;;;;;5033035;28;20491;-64
2022/01/06 13:51:08;;;;;;;9.23;2.92;;;;;;;;;;5033277;28;20037;-63
2022/01/06 13:53:46;;;;;;;6.22;2.38;;;;;;;;;;5033193;28;20025;-64
2022/01/06 13:56:27;;;;;;;5.40;2.30;;;;;;;;;;5033060;28;20029;-64
2022/01/06 13:58:53;;;;;;;8.88;2.08;;;;;;;;;;5032357;28;20083;-64
2022/01/06 14:01:24;;;;;;;5.97;2.25;;;;;;;;;;5033038;28;20030;-63
2022/01/06 14:03:50;;;;;;;4.95;2.13;;;;;;;;;;5032928;28;20391;-65
2022/01/06 14:06:17;;;;;;;4.97;2.08;;;;;;;;;;5032864;28;20070;-63
2022/01/06 14:08:43;;;;;;;7.55;2.08;;;;;;;;;;5032178;28;20087;-62
2022/01/06 14:11:12;;;;;;;12.85;3.45;;;;;;;;;;5042309;28;20028;-64
2022/01/06 14:13:39;;;;;;;5.40;3.08;;;;;;;;;;5052533;28;20029;-63
2022/01/06 14:16:05;;;;;;;7.10;2.60;;;;;;;;;;5051831;28;20068;-64
2022/01/06 14:18:40;;;;;;;9.25;3.30;;;;;;;;;;5051705;28;20032;-63
2022/01/06 14:21:06;;;;;;;9.15;2.40;;;;;;;;;;5052138;28;20028;-62
2022/01/06 14:23:34;;;;;;;8.50;2.83;;;;;;;;;;5052251;28;20040;-64
2022/01/06 14:26:01;;;;;;;10.02;2.97;;;;;;;;;;5051547;28;20021;-64
2022/01/06 14:28:28;;;;;;;7.22;2.30;;;;;;;;;;5044941;28;20097;-65
2022/01/06 14:30:57;;;;;;;5.70;2.45;;;;;;;;;;5032299;28;20033;-64
2022/01/06 14:33:27;;;;;;;14.13;2.83;;;;;;;;;;5032449;28;20022;-64
2022/01/06 14:35:53;;;;;;;8.18;2.95;;;;;;;;;;5034356;28;20132;-68
2022/01/06 14:38:20;;;;;;;6.60;2.63;;;;;;;;;;5050896;28;20041;-68